Time;durP1;ratioP1;P1;durP2;ratioP2;P2;SDS_P1;SDS_P2;PMS_P1;PMS_P2;Temp;Humidity;BMP_temperature;BMP_pressure;BME280_temperature;BME280_humidity;BME280_pressure;Samples;Min_cycle;Max_cycle;Signal;HPM_P1;HPM_P2
2023/09/23 00:01:13;;;;;;;5.30;4.80;;;;;19.10;96064.00;;;;5046933;28;20219;-71
2023/09/23 00:04:03;;;;;;;12.10;5.07;;;;;19.20;96055.00;;;;5047602;28;20286;-71
2023/09/23 00:06:52;;;;;;;8.50;4.87;;;;;19.30;96065.00;;;;5047472;28;20227;-71
2023/09/23 00:09:41;;;;;;;11.40;4.83;;;;;18.90;96063.00;;;;5047795;28;20216;-71
2023/09/23 00:12:30;;;;;;;7.13;4.67;;;;;18.90;96072.00;;;;5046713;28;20729;-71
2023/09/23 00:15:20;;;;;;;8.57;4.87;;;;;18.90;96078.00;;;;5043635;28;20201;-70
2023/09/23 00:18:11;;;;;;;6.13;4.37;;;;;19.20;96072.00;;;;5036985;28;20197;-70
2023/09/23 00:21:02;;;;;;;4.47;3.87;;;;;19.30;96074.00;;;;5047253;28;20208;-71
2023/09/23 00:23:51;;;;;;;5.73;5.20;;;;;19.40;96081.00;;;;5045722;28;20525;-71
2023/09/23 00:26:40;;;;;;;7.03;5.00;;;;;19.40;96060.00;;;;5047240;28;20221;-71
2023/09/23 00:29:29;;;;;;;8.43;4.67;;;;;19.30;96057.00;;;;5042995;28;20700;-71
2023/09/23 00:32:18;;;;;;;6.23;4.40;;;;;19.00;96068.00;;;;5047763;28;20235;-72
2023/09/23 00:35:12;;;;;;;4.80;3.87;;;;;19.10;96064.00;;;;5047619;28;20208;-71
2023/09/23 00:38:01;;;;;;;4.77;4.20;;;;;19.30;96055.00;;;;5111192;22;20233;-87
2023/09/23 00:40:51;;;;;;;5.87;4.30;;;;;19.20;96055.00;;;;5120945;28;20207;-88
2023/09/23 00:43:42;;;;;;;7.80;4.40;;;;;18.90;96057.00;;;;5124012;28;20202;-88
2023/09/23 00:46:31;;;;;;;5.23;4.20;;;;;19.00;96050.00;;;;5118672;28;20226;-88
2023/09/23 00:49:20;;;;;;;6.17;4.27;;;;;19.20;96043.00;;;;5092934;28;20196;-87
2023/09/23 00:52:11;;;;;;;6.87;4.33;;;;;19.30;96033.00;;;;5093668;28;20214;-88
2023/09/23 00:55:00;;;;;;;12.53;4.70;;;;;19.20;96031.00;;;;5111028;28;20203;-89
2023/09/23 00:57:53;;;;;;;4.30;3.90;;;;;18.90;96050.00;;;;5100840;28;20230;-88
2023/09/23 01:00:42;;;;;;;8.20;4.67;;;;;18.60;96048.00;;;;5093586;28;20196;-90
2023/09/23 01:03:32;;;;;;;8.80;4.17;;;;;18.80;96052.00;;;;5100119;28;20207;-88
2023/09/23 01:06:22;;;;;;;5.03;4.00;;;;;18.80;96054.00;;;;5099147;28;20222;-88
2023/09/23 01:09:21;;;;;;;7.17;4.50;;;;;19.00;96069.00;;;;5104529;28;20599;-88
2023/09/23 01:12:11;;;;;;;5.37;4.77;;;;;19.20;96085.00;;;;5098811;28;20214;-89
2023/09/23 01:15:16;;;;;;;6.43;4.10;;;;;19.30;96081.00;;;;5110264;28;20215;-88
2023/09/23 01:18:07;;;;;;;6.97;4.27;;;;;19.30;96057.00;;;;5102801;28;20238;-89
2023/09/23 01:21:00;;;;;;;6.53;5.03;;;;;19.20;96056.00;;;;5100132;28;20226;-88
2023/09/23 01:23:51;;;;;;;6.80;4.63;;;;;19.10;96074.00;;;;5090272;28;20218;-88
2023/09/23 01:26:40;;;;;;;4.63;4.13;;;;;18.80;96078.00;;;;5093871;28;20223;-88
2023/09/23 01:29:29;;;;;;;5.50;3.90;;;;;18.50;96094.00;;;;5097830;28;20579;-89
2023/09/23 01:32:27;;;;;;;8.10;4.90;;;;;18.70;96109.00;;;;5092729;28;20768;-87
2023/09/23 01:35:17;;;;;;;9.20;4.57;;;;;19.00;96118.00;;;;5098420;28;20214;-87
2023/09/23 01:38:07;;;;;;;6.97;4.80;;;;;19.00;96122.00;;;;5093403;28;20394;-88
2023/09/23 01:40:57;;;;;;;5.60;4.77;;;;;19.30;96113.00;;;;5100252;28;20214;-88
2023/09/23 01:43:48;;;;;;;6.60;4.80;;;;;19.40;96107.00;;;;5099537;28;20211;-88
2023/09/23 01:46:37;;;;;;;6.10;4.30;;;;;19.20;96116.00;;;;5097065;28;20583;-88
2023/09/23 01:49:26;;;;;;;13.07;5.40;;;;;19.20;96118.00;;;;5094688;28;20205;-88
2023/09/23 01:52:17;;;;;;;6.47;3.53;;;;;19.00;96118.00;;;;5091179;28;20202;-88
2023/09/23 01:55:06;;;;;;;5.07;3.93;;;;;18.80;96126.00;;;;5092353;28;20210;-88
2023/09/23 01:57:57;;;;;;;9.63;4.13;;;;;18.90;96113.00;;;;5094703;28;20223;-88
2023/09/23 02:00:46;;;;;;;7.80;4.20;;;;;19.10;96120.00;;;;5096248;28;20207;-87
2023/09/23 02:03:35;;;;;;;8.60;4.13;;;;;19.30;96113.00;;;;5095765;28;20687;-88
2023/09/23 02:06:28;;;;;;;6.40;4.47;;;;;19.40;96110.00;;;;5099297;28;20230;-87
2023/09/23 02:09:17;;;;;;;8.20;4.77;;;;;19.40;96106.00;;;;5090253;28;20204;-87
2023/09/23 02:12:07;;;;;;;5.10;3.57;;;;;19.40;96116.00;;;;5088764;28;20211;-88
2023/09/23 02:14:57;;;;;;;9.07;4.27;;;;;19.40;96136.00;;;;5098749;28;20224;-88
2023/09/23 02:17:48;;;;;;;5.47;3.53;;;;;19.30;96136.00;;;;5095587;28;20653;-88
2023/09/23 02:20:38;;;;;;;8.57;2.83;;;;;19.30;96125.00;;;;5096545;28;20203;-88
2023/09/23 02:23:27;;;;;;;5.00;2.67;;;;;19.20;96126.00;;;;5094750;28;20203;-87
2023/09/23 02:26:16;;;;;;;4.03;2.77;;;;;19.20;96111.00;;;;5091763;28;20712;-87
2023/09/23 02:29:06;;;;;;;4.83;2.33;;;;;19.00;96117.00;;;;5089715;28;20215;-87
2023/09/23 02:31:57;;;;;;;2.60;2.33;;;;;19.00;96124.00;;;;5089911;28;20207;-87
2023/09/23 02:34:46;;;;;;;4.93;2.43;;;;;18.70;96119.00;;;;5091501;28;20212;-88
2023/09/23 02:37:35;;;;;;;3.27;2.80;;;;;18.70;96124.00;;;;5092597;28;20231;-87
2023/09/23 02:40:27;;;;;;;4.90;2.73;;;;;18.70;96132.00;;;;5092902;28;20203;-87
2023/09/23 02:43:18;;;;;;;6.37;4.13;;;;;18.80;96142.00;;;;5095996;28;20223;-87
2023/09/23 02:46:07;;;;;;;5.43;4.37;;;;;18.70;96131.00;;;;5085208;28;20217;-87
2023/09/23 02:48:58;;;;;;;5.37;3.87;;;;;18.70;96130.00;;;;5089743;28;20193;-87
2023/09/23 02:51:48;;;;;;;6.03;3.70;;;;;18.80;96145.00;;;;5086079;28;20669;-88
2023/09/23 02:54:37;;;;;;;6.63;3.93;;;;;18.70;96155.00;;;;5094997;28;20688;-87
2023/09/23 02:57:27;;;;;;;4.00;3.57;;;;;18.70;96151.00;;;;5095024;28;20226;-88
2023/09/23 03:00:17;;;;;;;4.23;2.87;;;;;18.60;96164.00;;;;5090515;28;20203;-87
2023/09/23 03:03:18;;;;;;;5.27;2.80;;;;;18.20;96152.00;;;;5092712;28;20277;-87
2023/09/23 03:06:10;;;;;;;3.03;1.90;;;;;18.40;96146.00;;;;5086507;28;20214;-88
2023/09/23 03:08:59;;;;;;;4.10;2.10;;;;;18.30;96139.00;;;;5086654;28;20231;-87
2023/09/23 03:11:53;;;;;;;2.37;1.47;;;;;18.30;96140.00;;;;5092978;28;20206;-87
2023/09/23 03:14:45;;;;;;;2.07;1.87;;;;;18.30;96147.00;;;;5088770;28;20211;-88
2023/09/23 03:17:34;;;;;;;7.83;1.33;;;;;18.10;96149.00;;;;5092150;28;20242;-87
2023/09/23 03:20:26;;;;;;;3.40;1.30;;;;;18.20;96150.00;;;;5093938;28;20236;-87
2023/09/23 03:23:16;;;;;;;1.90;1.60;;;;;18.10;96156.00;;;;5095865;28;20206;-87
2023/09/23 03:26:06;;;;;;;1.70;1.30;;;;;18.00;96150.00;;;;5089318;28;20772;-87
2023/09/23 03:28:57;;;;;;;1.53;1.40;;;;;17.90;96137.00;;;;5100340;28;20546;-87
2023/09/23 03:31:46;;;;;;;5.20;1.57;;;;;17.90;96120.00;;;;5094282;28;20207;-88
2023/09/23 03:34:37;;;;;;;2.87;1.27;;;;;17.80;96134.00;;;;5101797;28;20585;-87
2023/09/23 03:37:26;;;;;;;1.30;1.20;;;;;17.90;96148.00;;;;5095009;28;20227;-88
2023/09/23 03:40:24;;;;;;;2.33;1.20;;;;;17.70;96150.00;;;;5094238;28;20222;-87
2023/09/23 03:43:13;;;;;;;1.90;1.47;;;;;17.70;96141.00;;;;5094130;28;20230;-88
2023/09/23 03:46:03;;;;;;;4.60;1.20;;;;;17.70;96147.00;;;;5092200;28;20206;-87
2023/09/23 03:48:53;;;;;;;1.40;1.30;;;;;17.60;96150.00;;;;5094519;28;20926;-87
2023/09/23 03:51:42;;;;;;;1.33;1.23;;;;;17.60;96153.00;;;;5092934;28;20211;-87
2023/09/23 03:54:33;;;;;;;5.23;1.20;;;;;17.60;96161.00;;;;5088217;28;20208;-88
2023/09/23 03:57:23;;;;;;;1.30;1.20;;;;;17.50;96180.00;;;;5095504;28;20223;-87
2023/09/23 04:00:16;;;;;;;1.83;0.83;;;;;17.70;96172.00;;;;5091202;28;20699;-87
2023/09/23 04:03:05;;;;;;;1.87;1.20;;;;;17.70;96191.00;;;;5087526;28;20288;-87
2023/09/23 04:05:57;;;;;;;1.40;1.10;;;;;17.70;96190.00;;;;5092905;28;20199;-87
2023/09/23 04:08:47;;;;;;;2.00;1.27;;;;;17.60;96203.00;;;;5091227;28;20200;-88
2023/09/23 04:11:36;;;;;;;1.63;1.53;;;;;17.80;96195.00;;;;5091472;28;20773;-87
2023/09/23 04:14:27;;;;;;;3.47;1.03;;;;;17.90;96199.00;;;;5088121;28;20207;-87
2023/09/23 04:17:16;;;;;;;3.90;1.20;;;;;17.80;96195.00;;;;5089183;28;20233;-87
2023/09/23 04:20:10;;;;;;;2.37;0.87;;;;;17.40;96201.00;;;;5087959;28;20306;-88
2023/09/23 04:22:59;;;;;;;1.17;0.80;;;;;17.80;96202.00;;;;5105609;28;20219;-88
2023/09/23 04:25:49;;;;;;;1.20;1.10;;;;;17.90;96206.00;;;;5090894;28;20203;-87
2023/09/23 04:28:38;;;;;;;2.50;0.83;;;;;17.70;96217.00;;;;5091777;28;20200;-88
2023/09/23 04:31:29;;;;;;;1.13;0.90;;;;;17.90;96232.00;;;;5089067;28;20203;-88
2023/09/23 04:34:18;;;;;;;2.97;1.10;;;;;18.00;96223.00;;;;5084679;28;20576;-88
2023/09/23 04:37:07;;;;;;;3.10;1.07;;;;;17.90;96223.00;;;;5085061;28;20232;-88
2023/09/23 04:39:57;;;;;;;2.17;1.20;;;;;17.90;96227.00;;;;5084510;28;20601;-88
2023/09/23 04:42:48;;;;;;;3.33;1.10;;;;;17.90;96237.00;;;;5095406;28;20208;-88
2023/09/23 04:45:37;;;;;;;1.87;0.93;;;;;17.80;96234.00;;;;5097342;28;20218;-88
2023/09/23 04:48:30;;;;;;;4.10;0.60;;;;;17.80;96243.00;;;;5091242;28;20192;-88
2023/09/23 04:51:20;;;;;;;1.10;0.60;;;;;17.80;96257.00;;;;5090340;28;20278;-87
2023/09/23 04:54:09;;;;;;;2.87;1.00;;;;;17.70;96273.00;;;;5077187;28;20208;-88
2023/09/23 04:56:58;;;;;;;3.23;1.30;;;;;17.80;96275.00;;;;5094571;28;20236;-88
2023/09/23 04:59:47;;;;;;;1.60;1.10;;;;;17.70;96289.00;;;;5101247;28;20711;-89
2023/09/23 05:02:39;;;;;;;1.47;0.97;;;;;17.70;96296.00;;;;5086707;28;20687;-87
2023/09/23 05:05:29;;;;;;;1.20;0.90;;;;;17.70;96303.00;;;;5089607;28;20225;-89
2023/09/23 05:08:19;;;;;;;3.23;1.00;;;;;17.60;96308.00;;;;5086729;28;20199;-89
2023/09/23 05:11:11;;;;;;;2.50;0.70;;;;;17.70;96296.00;;;;5090880;28;20207;-89
2023/09/23 05:14:00;;;;;;;1.53;0.90;;;;;17.60;96288.00;;;;5091397;28;20218;-89
2023/09/23 05:16:51;;;;;;;1.20;0.77;;;;;17.50;96275.00;;;;5099484;28;20297;-88
2023/09/23 05:19:40;;;;;;;2.07;0.80;;;;;17.30;96294.00;;;;5090586;28;20304;-88
2023/09/23 05:22:31;;;;;;;1.47;0.67;;;;;17.30;96296.00;;;;5092023;28;20581;-88
2023/09/23 05:25:24;;;;;;;3.07;0.90;;;;;17.30;96312.00;;;;5083202;28;20219;-89
2023/09/23 05:28:13;;;;;;;2.70;1.20;;;;;17.40;96316.00;;;;5088666;28;20241;-89
2023/09/23 05:31:03;;;;;;;1.83;1.23;;;;;17.40;96313.00;;;;5092161;28;20211;-90
2023/09/23 05:33:52;;;;;;;1.77;0.87;;;;;17.40;96330.00;;;;5089527;28;20207;-89
2023/09/23 05:36:42;;;;;;;2.87;0.77;;;;;17.30;96338.00;;;;5103013;28;20242;-89
2023/09/23 05:39:34;;;;;;;0.87;0.70;;;;;17.40;96347.00;;;;5094732;28;20293;-90
2023/09/23 05:42:25;;;;;;;1.13;0.90;;;;;17.40;96338.00;;;;5087724;28;20574;-88
2023/09/23 05:45:15;;;;;;;1.37;1.03;;;;;17.50;96349.00;;;;5091898;28;20214;-89
2023/09/23 05:48:04;;;;;;;1.27;1.03;;;;;17.50;96366.00;;;;5102220;28;20234;-88
2023/09/23 05:51:03;;;;;;;4.53;1.27;;;;;17.40;96363.00;;;;5092792;28;20199;-88
2023/09/23 05:53:52;;;;;;;3.47;1.83;;;;;17.50;96369.00;;;;5087868;28;20207;-88
2023/09/23 05:56:43;;;;;;;4.07;1.33;;;;;17.50;96376.00;;;;5075786;28;20220;-89
2023/09/23 05:59:32;;;;;;;1.33;1.00;;;;;17.50;96380.00;;;;5081849;28;20219;-90
2023/09/23 06:02:21;;;;;;;1.07;0.80;;;;;17.20;96372.00;;;;5085390;28;20230;-88
2023/09/23 06:05:11;;;;;;;2.10;1.10;;;;;17.40;96382.00;;;;5086399;28;20203;-88
2023/09/23 06:08:00;;;;;;;2.60;1.33;;;;;17.00;96392.00;;;;5085503;28;20223;-87
2023/09/23 06:10:50;;;;;;;4.37;1.13;;;;;17.10;96390.00;;;;5090980;28;20204;-88
2023/09/23 06:13:40;;;;;;;5.13;1.50;;;;;17.30;96402.00;;;;5083535;28;20207;-90
2023/09/23 06:16:29;;;;;;;25.10;11.17;;;;;17.40;96404.00;;;;5088099;28;20961;-87
2023/09/23 06:19:18;;;;;;;45.47;26.85;;;;;17.20;96406.00;;;;5084246;28;20432;-87
2023/09/23 06:22:07;;;;;;;10.35;5.80;;;;;17.30;96403.00;;;;5090195;28;20398;-89
2023/09/23 06:24:57;;;;;;;5.83;2.33;;;;;17.50;96401.00;;;;5090131;28;20455;-88
2023/09/23 06:27:46;;;;;;;4.77;1.87;;;;;17.60;96404.00;;;;5092888;28;20234;-88
2023/09/23 06:30:36;;;;;;;8.10;3.37;;;;;17.50;96410.00;;;;5091661;28;20199;-88
2023/09/23 06:33:25;;;;;;;5.57;3.03;;;;;17.60;96405.00;;;;5088183;28;20219;-90
2023/09/23 06:36:15;;;;;;;9.03;3.50;;;;;17.70;96402.00;;;;5090680;28;20230;-88
2023/09/23 06:39:04;;;;;;;3.90;2.23;;;;;17.70;96417.00;;;;5085246;28;20219;-89
2023/09/23 06:41:53;;;;;;;9.07;3.80;;;;;17.70;96418.00;;;;5083596;28;20203;-89
2023/09/23 06:44:43;;;;;;;4.90;2.87;;;;;17.60;96424.00;;;;5090276;28;20585;-89
2023/09/23 06:47:33;;;;;;;4.20;2.23;;;;;17.70;96423.00;;;;5082695;28;20429;-88
2023/09/23 06:50:22;;;;;;;4.73;2.27;;;;;17.70;96442.00;;;;5073946;28;20329;-88
2023/09/23 06:53:11;;;;;;;4.47;2.37;;;;;17.70;96429.00;;;;5079745;28;20199;-88
2023/09/23 06:56:01;;;;;;;2.63;2.00;;;;;17.80;96429.00;;;;5084643;28;20214;-88
2023/09/23 06:58:50;;;;;;;2.67;1.50;;;;;17.90;96441.00;;;;5076934;28;20192;-88
2023/09/23 07:01:39;;;;;;;7.60;2.10;;;;;17.70;96444.00;;;;5078938;28;20203;-89
2023/09/23 07:04:30;;;;;;;1.57;1.27;;;;;17.70;96454.00;;;;5078754;28;20218;-88
2023/09/23 07:07:19;;;;;;;3.10;1.67;;;;;17.60;96461.00;;;;5077355;28;20638;-88
2023/09/23 07:10:08;;;;;;;2.20;1.33;;;;;17.70;96463.00;;;;5084072;28;20200;-88
2023/09/23 07:12:58;;;;;;;2.57;1.57;;;;;17.80;96463.00;;;;5082878;28;20214;-88
2023/09/23 07:15:47;;;;;;;3.03;1.27;;;;;17.70;96457.00;;;;5079593;28;20664;-88
2023/09/23 07:18:36;;;;;;;2.53;1.67;;;;;17.70;96459.00;;;;5077479;28;20206;-88
2023/09/23 07:21:26;;;;;;;2.43;1.43;;;;;17.80;96464.00;;;;5078158;28;20204;-88
2023/09/23 07:24:15;;;;;;;2.37;1.40;;;;;17.90;96472.00;;;;5080966;28;20200;-87
2023/09/23 07:27:05;;;;;;;2.87;1.67;;;;;18.00;96468.00;;;;5078745;28;20227;-90
2023/09/23 07:29:54;;;;;;;2.07;1.20;;;;;17.90;96471.00;;;;5089684;28;20210;-89
2023/09/23 07:32:43;;;;;;;2.10;1.60;;;;;18.00;96470.00;;;;5083489;28;20199;-88
2023/09/23 07:35:33;;;;;;;1.87;1.33;;;;;18.10;96490.00;;;;5088068;28;20216;-89
2023/09/23 07:38:25;;;;;;;4.27;1.30;;;;;18.00;96474.00;;;;5082391;28;20199;-88
2023/09/23 07:41:17;;;;;;;4.83;1.10;;;;;18.10;96496.00;;;;5088576;28;20230;-88
2023/09/23 07:44:06;;;;;;;1.67;0.97;;;;;18.00;96504.00;;;;5078053;28;20198;-88
2023/09/23 07:46:55;;;;;;;2.17;1.87;;;;;18.00;96506.00;;;;5087935;28;20231;-88
2023/09/23 07:49:45;;;;;;;2.63;1.30;;;;;18.10;96510.00;;;;5100136;23;20204;-71
2023/09/23 07:52:35;;;;;;;3.93;1.70;;;;;18.20;96522.00;;;;5097642;28;20229;-71
2023/09/23 07:55:26;;;;;;;1.57;1.17;;;;;18.20;96518.00;;;;5085798;28;20199;-72
2023/09/23 07:58:15;;;;;;;2.17;1.37;;;;;18.40;96523.00;;;;5081390;28;20222;-72
2023/09/23 08:01:04;;;;;;;6.33;1.67;;;;;18.40;96525.00;;;;5082111;28;20771;-71
2023/09/23 08:03:53;;;;;;;3.57;1.50;;;;;18.40;96530.00;;;;5080981;28;20212;-72
2023/09/23 08:06:43;;;;;;;5.30;1.77;;;;;18.40;96537.00;;;;5082094;28;20215;-71
2023/09/23 08:09:32;;;;;;;3.20;1.10;;;;;18.40;96548.00;;;;5076757;28;20215;-70
2023/09/23 08:12:22;;;;;;;2.60;1.37;;;;;18.30;96553.00;;;;5078947;28;20203;-71
2023/09/23 08:15:12;;;;;;;2.03;1.33;;;;;18.30;96553.00;;;;5081686;28;20203;-71
2023/09/23 08:18:01;;;;;;;1.43;1.10;;;;;18.20;96559.00;;;;5089461;28;20222;-72
2023/09/23 08:20:57;;;;;;;4.00;1.07;;;;;18.10;96561.00;;;;5081392;28;20219;-71
2023/09/23 08:23:46;;;;;;;3.40;1.47;;;;;18.20;96557.00;;;;5083258;28;20200;-71
2023/09/23 08:26:36;;;;;;;2.77;1.00;;;;;18.10;96560.00;;;;5082837;28;20269;-71
2023/09/23 08:29:29;;;;;;;2.27;0.90;;;;;18.10;96560.00;;;;5082180;28;20203;-72
2023/09/23 08:32:18;;;;;;;2.47;1.50;;;;;18.00;96571.00;;;;5085654;28;20199;-71
2023/09/23 08:35:08;;;;;;;1.17;0.90;;;;;17.90;96571.00;;;;5085142;28;20682;-71
2023/09/23 08:37:57;;;;;;;2.13;0.80;;;;;17.90;96581.00;;;;5086414;28;20226;-71
2023/09/23 08:40:46;;;;;;;1.80;0.87;;;;;17.80;96588.00;;;;5081299;28;20589;-72
2023/09/23 08:43:39;;;;;;;4.17;0.97;;;;;17.50;96596.00;;;;5081371;28;20218;-69
2023/09/23 08:46:30;;;;;;;1.23;0.70;;;;;17.90;96597.00;;;;5084012;28;20600;-69
2023/09/23 08:49:22;;;;;;;1.40;0.97;;;;;18.10;96606.00;;;;5082532;28;20203;-68
2023/09/23 08:52:11;;;;;;;6.60;1.20;;;;;18.10;96611.00;;;;5087341;28;20209;-68
2023/09/23 08:55:03;;;;;;;3.50;1.53;;;;;17.90;96614.00;;;;5078217;28;20214;-68
2023/09/23 08:57:52;;;;;;;3.07;1.20;;;;;18.10;96628.00;;;;5087544;28;20614;-69
2023/09/23 09:00:46;;;;;;;3.23;1.20;;;;;18.10;96626.00;;;;5089572;28;20219;-68
2023/09/23 09:03:37;;;;;;;2.97;1.07;;;;;18.00;96631.00;;;;5085613;28;20200;-67
2023/09/23 09:06:29;;;;;;;3.53;1.10;;;;;18.00;96637.00;;;;5085381;28;20226;-69
2023/09/23 09:09:18;;;;;;;6.23;1.23;;;;;17.80;96637.00;;;;5087065;28;20211;-69
2023/09/23 09:12:09;;;;;;;2.20;1.17;;;;;17.80;96641.00;;;;5090032;28;20192;-69
2023/09/23 09:14:58;;;;;;;2.13;0.87;;;;;17.70;96653.00;;;;5089851;28;20207;-69
2023/09/23 09:17:47;;;;;;;2.50;1.10;;;;;17.50;96648.00;;;;5086384;28;20412;-68
2023/09/23 09:20:37;;;;;;;3.13;1.10;;;;;17.60;96665.00;;;;5090482;28;20251;-68
2023/09/23 09:23:30;;;;;;;4.33;1.40;;;;;17.70;96660.00;;;;5086001;28;20195;-69
2023/09/23 09:26:19;;;;;;;4.53;1.13;;;;;17.80;96662.00;;;;5083281;28;20196;-68
2023/09/23 09:29:08;;;;;;;5.13;0.93;;;;;17.90;96669.00;;;;5086010;28;20465;-69
2023/09/23 09:32:00;;;;;;;3.63;1.10;;;;;17.70;96672.00;;;;5087993;28;20206;-68
2023/09/23 09:34:51;;;;;;;1.40;1.07;;;;;17.70;96677.00;;;;5088426;28;20199;-69
2023/09/23 09:37:44;;;;;;;5.17;1.40;;;;;17.70;96670.00;;;;5090165;28;20215;-68
2023/09/23 09:40:33;;;;;;;2.20;1.10;;;;;17.60;96674.00;;;;5086635;28;20215;-68
2023/09/23 09:43:23;;;;;;;4.27;0.97;;;;;17.40;96668.00;;;;5087796;28;20562;-70
2023/09/23 09:46:12;;;;;;;2.30;1.77;;;;;17.60;96669.00;;;;5088152;28;20664;-69
2023/09/23 09:49:04;;;;;;;5.00;1.30;;;;;17.80;96663.00;;;;5087033;28;20203;-68
2023/09/23 09:51:53;;;;;;;4.00;1.00;;;;;18.00;96664.00;;;;5086275;28;20290;-68
2023/09/23 09:54:44;;;;;;;2.77;2.00;;;;;18.10;96667.00;;;;5088183;28;20203;-69
2023/09/23 09:57:33;;;;;;;2.83;0.93;;;;;18.10;96648.00;;;;5084317;28;20222;-69
2023/09/23 10:00:27;;;;;;;3.20;0.90;;;;;18.10;96667.00;;;;5084778;28;20203;-69
2023/09/23 10:03:16;;;;;;;2.00;1.47;;;;;17.80;96677.00;;;;5088873;28;20203;-68
2023/09/23 10:06:08;;;;;;;6.20;3.83;;;;;17.90;96672.00;;;;5086497;28;20206;-70
2023/09/23 10:08:58;;;;;;;3.07;1.97;;;;;18.00;96665.00;;;;5090914;28;20196;-68
2023/09/23 10:11:58;;;;;;;4.23;1.50;;;;;18.00;96664.00;;;;5085857;28;20187;-69
2023/09/23 10:14:54;;;;;;;1.10;1.03;;;;;17.80;96667.00;;;;5084312;28;20207;-68
2023/09/23 10:17:43;;;;;;;2.67;1.20;;;;;17.90;96666.00;;;;5083349;28;20230;-70
2023/09/23 10:20:35;;;;;;;1.37;1.07;;;;;18.20;96663.00;;;;5086956;28;20209;-69
2023/09/23 10:23:24;;;;;;;4.77;1.23;;;;;18.10;96651.00;;;;5083946;28;20598;-69
2023/09/23 10:26:14;;;;;;;4.77;1.23;;;;;18.30;96657.00;;;;5087059;28;20218;-69
2023/09/23 10:29:06;;;;;;;1.73;1.00;;;;;18.50;96671.00;;;;5082932;28;20255;-69
2023/09/23 10:31:55;;;;;;;1.63;0.97;;;;;18.80;96659.00;;;;5086549;28;20207;-69
2023/09/23 10:34:48;;;;;;;1.93;0.90;;;;;19.00;96661.00;;;;5078460;28;20203;-69
2023/09/23 10:37:39;;;;;;;2.17;1.10;;;;;19.10;96662.00;;;;5084317;28;20219;-69
2023/09/23 10:40:28;;;;;;;1.40;0.83;;;;;19.10;96654.00;;;;5080232;28;20203;-68
2023/09/23 10:43:17;;;;;;;1.07;0.73;;;;;18.90;96654.00;;;;5080842;28;20199;-70
2023/09/23 10:46:07;;;;;;;1.90;0.60;;;;;19.20;96659.00;;;;5078760;28;20203;-69
2023/09/23 10:48:57;;;;;;;1.43;0.93;;;;;19.20;96662.00;;;;5080284;28;20244;-70
2023/09/23 10:51:46;;;;;;;2.10;0.90;;;;;19.20;96666.00;;;;5087759;28;20208;-69
2023/09/23 10:54:35;;;;;;;1.60;1.20;;;;;19.40;96673.00;;;;5082852;28;20200;-70
2023/09/23 10:57:24;;;;;;;4.60;1.13;;;;;19.80;96675.00;;;;5086449;28;20230;-68
2023/09/23 11:00:20;;;;;;;2.67;1.30;;;;;20.10;96661.00;;;;5085331;28;20211;-70
2023/09/23 11:03:11;;;;;;;3.27;1.27;;;;;19.80;96651.00;;;;5088272;28;20235;-70
2023/09/23 11:06:00;;;;;;;2.80;1.40;;;;;20.30;96636.00;;;;5085383;28;20206;-69
2023/09/23 11:08:50;;;;;;;5.80;1.30;;;;;19.60;96647.00;;;;5080379;28;20199;-69
2023/09/23 11:11:39;;;;;;;2.20;0.90;;;;;20.00;96663.00;;;;5086455;28;20207;-69
2023/09/23 11:14:28;;;;;;;1.73;0.90;;;;;20.00;96656.00;;;;5083615;28;20196;-69
2023/09/23 11:17:25;;;;;;;1.10;0.70;;;;;20.30;96637.00;;;;5080814;28;20223;-69
2023/09/23 11:20:16;;;;;;;2.37;1.10;;;;;20.50;96649.00;;;;5083214;28;20199;-69
2023/09/23 11:23:06;;;;;;;2.73;1.73;;;;;20.60;96636.00;;;;5081409;28;20341;-69
2023/09/23 11:25:55;;;;;;;2.33;1.37;;;;;20.80;96646.00;;;;5082416;28;20211;-70
2023/09/23 11:28:44;;;;;;;2.10;1.30;;;;;20.90;96639.00;;;;5083096;28;20199;-69
2023/09/23 11:31:33;;;;;;;2.30;1.27;;;;;20.70;96641.00;;;;5084266;28;20660;-70
2023/09/23 11:34:22;;;;;;;7.47;1.87;;;;;20.90;96647.00;;;;5083985;28;20199;-69
2023/09/23 11:37:13;;;;;;;2.63;1.47;;;;;21.00;96644.00;;;;5085313;28;20223;-72
2023/09/23 11:40:03;;;;;;;2.10;1.37;;;;;21.00;96640.00;;;;5077916;28;20699;-72
2023/09/23 11:42:53;;;;;;;2.50;1.67;;;;;21.00;96655.00;;;;5081914;28;20250;-72
2023/09/23 11:45:43;;;;;;;2.53;1.13;;;;;21.00;96672.00;;;;5080659;28;20214;-72
2023/09/23 11:48:32;;;;;;;2.07;1.00;;;;;21.10;96670.00;;;;5081489;28;20220;-72
2023/09/23 11:51:21;;;;;;;2.13;1.20;;;;;21.30;96671.00;;;;5082052;28;20801;-72
2023/09/23 11:54:11;;;;;;;1.90;1.40;;;;;21.10;96679.00;;;;5082884;28;20693;-72
2023/09/23 11:57:01;;;;;;;1.43;1.00;;;;;20.90;96700.00;;;;5081514;28;20273;-72
2023/09/23 11:59:50;;;;;;;2.70;1.17;;;;;20.70;96692.00;;;;5081788;28;20195;-72
2023/09/23 12:02:39;;;;;;;1.23;1.00;;;;;20.60;96689.00;;;;5084761;28;20436;-72
2023/09/23 12:05:29;;;;;;;2.00;1.10;;;;;20.50;96695.00;;;;5078167;28;20195;-72
2023/09/23 12:08:19;;;;;;;0.97;0.80;;;;;21.00;96683.00;;;;5082584;28;20311;-73
2023/09/23 12:11:09;;;;;;;2.47;1.30;;;;;21.20;96679.00;;;;5081491;28;20431;-71
2023/09/23 12:13:58;;;;;;;2.00;1.03;;;;;21.30;96673.00;;;;5081836;28;21698;-70
2023/09/23 12:16:47;;;;;;;6.43;1.43;;;;;21.20;96680.00;;;;5079905;28;20224;-69
2023/09/23 12:19:36;;;;;;;3.57;1.20;;;;;20.90;96684.00;;;;5083063;28;20206;-70
2023/09/23 12:22:26;;;;;;;3.37;1.23;;;;;21.30;96675.00;;;;5081359;28;20230;-73
2023/09/23 12:25:16;;;;;;;2.73;1.10;;;;;21.30;96669.00;;;;5085171;28;20207;-72
2023/09/23 12:28:07;;;;;;;1.50;1.30;;;;;21.30;96679.00;;;;5084001;28;20707;-69
2023/09/23 12:30:56;;;;;;;2.13;1.57;;;;;21.30;96689.00;;;;5078884;28;20203;-72
2023/09/23 12:33:45;;;;;;;3.67;1.80;;;;;21.00;96687.00;;;;5079532;28;20413;-73
2023/09/23 12:36:35;;;;;;;1.90;1.57;;;;;21.20;96690.00;;;;5080606;28;20233;-69
2023/09/23 12:39:24;;;;;;;3.37;2.00;;;;;21.20;96686.00;;;;5084953;28;20199;-70
2023/09/23 12:42:14;;;;;;;4.47;2.20;;;;;21.40;96681.00;;;;5081828;28;20223;-68
2023/09/23 12:45:07;;;;;;;5.27;1.93;;;;;21.40;96680.00;;;;5081932;28;20218;-69
2023/09/23 12:47:56;;;;;;;2.33;1.67;;;;;21.40;96689.00;;;;5079975;28;20234;-69
2023/09/23 12:50:46;;;;;;;3.30;1.90;;;;;21.40;96695.00;;;;5081499;28;20903;-69
2023/09/23 12:53:35;;;;;;;2.27;1.83;;;;;21.60;96695.00;;;;5085101;28;20309;-69
2023/09/23 12:56:24;;;;;;;2.57;2.00;;;;;21.50;96707.00;;;;5081560;28;20270;-70
2023/09/23 12:59:13;;;;;;;2.63;2.10;;;;;21.40;96697.00;;;;5080290;28;20204;-71
2023/09/23 13:02:03;;;;;;;3.67;1.87;;;;;21.60;96701.00;;;;5077689;28;20588;-69
2023/09/23 13:04:52;;;;;;;2.53;1.60;;;;;21.70;96694.00;;;;5078248;28;20229;-69
2023/09/23 13:07:41;;;;;;;2.83;1.87;;;;;21.80;96685.00;;;;5076707;28;20231;-70
2023/09/23 13:10:30;;;;;;;2.47;2.00;;;;;21.80;96684.00;;;;5082692;28;20208;-69
2023/09/23 13:13:19;;;;;;;2.17;1.97;;;;;21.70;96688.00;;;;5086548;28;20195;-69
2023/09/23 13:16:08;;;;;;;2.13;1.63;;;;;21.70;96678.00;;;;5071904;28;20210;-68
2023/09/23 13:19:00;;;;;;;4.93;2.73;;;;;21.60;96697.00;;;;5079343;28;20195;-69
2023/09/23 13:21:49;;;;;;;3.83;2.63;;;;;21.60;96682.00;;;;5082148;28;20199;-69
2023/09/23 13:24:38;;;;;;;7.40;2.90;;;;;21.70;96686.00;;;;5082446;28;20214;-68
2023/09/23 13:27:28;;;;;;;7.67;3.60;;;;;21.60;96679.00;;;;5084269;28;20234;-69
2023/09/23 13:30:18;;;;;;;3.07;1.83;;;;;21.40;96683.00;;;;5085846;28;20688;-69
2023/09/23 13:33:08;;;;;;;7.43;3.40;;;;;21.50;96685.00;;;;5081967;28;20203;-69
2023/09/23 13:35:59;;;;;;;9.03;3.90;;;;;21.40;96698.00;;;;5078529;28;20231;-70
2023/09/23 13:38:48;;;;;;;7.67;3.73;;;;;21.30;96705.00;;;;5079722;28;20301;-70
2023/09/23 13:41:37;;;;;;;11.40;4.53;;;;;21.30;96714.00;;;;5084304;28;20215;-69
2023/09/23 13:44:26;;;;;;;6.60;3.83;;;;;21.20;96717.00;;;;5085337;28;20227;-69
2023/09/23 13:47:16;;;;;;;4.03;2.77;;;;;21.40;96719.00;;;;5082650;28;20265;-69
2023/09/23 13:50:07;;;;;;;1.97;1.57;;;;;21.30;96735.00;;;;5077805;28;20222;-70
2023/09/23 13:52:57;;;;;;;3.03;1.20;;;;;21.20;96735.00;;;;5090975;28;20195;-69
2023/09/23 13:55:47;;;;;;;3.23;1.90;;;;;21.00;96733.00;;;;5075455;28;20211;-68
2023/09/23 13:58:36;;;;;;;1.30;1.20;;;;;21.00;96732.00;;;;5082710;28;20210;-69
2023/09/23 14:01:25;;;;;;;4.00;0.93;;;;;20.90;96743.00;;;;5085650;28;20199;-69
2023/09/23 14:04:14;;;;;;;1.20;1.10;;;;;20.90;96740.00;;;;5085343;28;20211;-70
2023/09/23 14:07:03;;;;;;;2.13;1.17;;;;;20.80;96750.00;;;;5082694;28;20228;-69
2023/09/23 14:09:53;;;;;;;2.37;1.30;;;;;20.70;96734.00;;;;5086973;28;20199;-69
2023/09/23 14:12:44;;;;;;;2.93;1.20;;;;;20.80;96734.00;;;;5083342;28;20664;-69